Terminal Aerodrome Forecast
Issued by NWS

Home | Current Version | Previous Version | Text Only | Print | Product List | Glossary On
Versions: 1 2 3 4 5 6 7 8 9 10 11 12 13 14 15 16 17
000
FTUS44 KLZK 011100
TAFBPK
TAF
KBPK 011137Z 0112/0212 18008KT P6SM SCT015 OVC030
      TEMPO 0112/0116 5SM -RA BKN015
     FM011600 26009G16KT P6SM VCSH OVC025
     FM012000 31009G16KT P6SM SCT035 BKN060=

USA.gov is the U.S. government's official web portal to all federal, state and local government web resources and services.